Raith, Canada
Current Conditions -  °F | °C
As of 6:00 PM on Monday 22 Dec 2014 (Local Time) from CYQT Reporting Station
Haze Haze  
Wind Chill: 36°   Ceiling: 1000
Heat Index: 36°   Visibility: 4mi
Dew Point: 34°   Wind: 2mph
Humidity: 93%   Direction: 120°ESE
Pressure: 29.82"   Gusts: NA
Location:  48.83°N, 89.92°W
Report Text: CYQT 222300Z 12002KT 4SM BR OVC010 02/01 A2982 RMK ST8 SLP108
Loading
Personal Weather Stations






























Interactive Weather Map New forecast layout! Learn more

10-Day Weather Forecast

Advertisements
Track Severe Weather on mobile